Maxwell Air Force Base
KMXF : now visible

Airfield :











YOU CAN JOIN US ON...

 
LOGIN :

Register | Disclaimer

   EN    FR    IT 

 









Legend :    VFR   Marginal VFR   IFR   Intensive IFR   Very Intensive IFR
Visi :
Ceiling :
>= 8 km
>= 3000ft
5 to 8 km
1000 to 3000 ft
1500m to 5 km
500 to 1000 ft
800 to 1500m
200 to 500 ft
< 800m
< 200 ft
Symbols :   Thunderstorms  Fog  Heavy snow  Heavy precipitations  Wind > 20 kt






- Airport Elevation : 171 ft


KMXF - Maxwell Air Force Base

CURRENT METAR :
  • 191755Z AUTO 24004KT 10SM SCT018 BKN028 OVC034 27/21 A3000 RMK AO2 CIG 018V028 SLP160 60000 T02660211 10268 20226 58003

EXPIRED METARs :
  • 191740Z AUTO 23006KT 10SM BKN016 BKN023 27/21 A3000 RMK AO2 CIG 016V020 SLP160
  • 191655Z AUTO 21006KT 10SM SCT020 OVC035 26/21 A3002 RMK AO2 SLP167 T02550211
  • 191625Z AUTO 22003KT 10SM FEW013 FEW018 BKN028 OVC033 26/21 A3002 RMK AO2 CIG 018V033 SLP167
  • 191555Z AUTO 00000KT 10SM BKN011 BKN018 26/22 A3001 RMK AO2 SLP164 T02570215

TAF AMD TAF KMXF
Valid from the 19 at 12:00 until the 20 at 17:00 UTC


191235Z 1912/2017 VRB06KT 9000 -RA BKN085 QNH2993INS
BECMG 1915/1916 VRB06KT 6000 -SHRA BKN035 BKN065 QNH3001INS
TEMPO 1915/1918 25010G20KT 4800 TSRA FEW010CB BKN017 OVC025
BECMG 1919/1920 VRB06KT 9999 NSW FEW024 QNH2993INS
BECMG 2001/2002 VRB06KT 8000 BR BKN025 QNH2997INS
BECMG 2016/2017 VRB06KT 9000 -SHRA BKN026 QNH3007INS TX28/1918Z TN22/2011Z
KZTL FIR / North America



MET'MAP, your aeronautical weather chart ! - Copyright ORBIFLY December 2007 - Disclaimer

ORBIFLY MET'MAP TEAM :

Programming & Development : Alexandra Zaïnal
Original concept : Baudouin d'Aumeries
Technical & hardware support : Manuel Goepfert
Assistance : Marc-Olivier Méhu




SOURCES & CREDITS :

   NOAA       Earth
Advisory